KMEI/MEI METAR and TAF weather

Enter ICAO airport designator
Station Type Date Time Source
KMEI METAR 2020/02/20 17:58 UTC NOAA

KMEI 201758Z 36014KT 10SM -RA OVC008 09/07 A3023 RMK AO2 CIG 006V011 SLP234 P0006 60095 I1000 I6/// T00890067 10100 20083 53006


Station Type Date Time Source
KMEI Decoded METAR 2020/02/20 17:58 UTC NOAA

MERIDIAN KEY FIELD, MS, United States (KMEI) 32-20N 088-45W 89M
Feb 20, 2020 - 12:58 PM EST / 2020.02.20 1758 UTC
Wind: from the N (360 degrees) at 16 MPH (14 KT):0
Visibility: 10 mile(s):0
Sky conditions: overcast
Weather: light rain
Precipitation last hour: 0.06 inches
Temperature: 48.0 F (8.9 C)
Dew Point: 44.1 F (6.7 C)
Relative Humidity: 86%
Pressure (altimeter): 30.23 in. Hg (1023 hPa)
Pressure tendency: 0.02 inches (0.6 hPa) higher than three hours ago
ob: KMEI 201758Z 36014KT 10SM -RA OVC008 09/07 A3023 RMK AO2 CIG 006V011 SLP234 P0006 60095 I1000 I6/// T00890067 10100 20083 53006
cycle: 18

Station Type Date Time Source
KMEI TAF 2020/02/20 18:39 UTC NOAA

TAF KMEI 201736Z 2018/2118 02013KT P6SM -RA OVC009
FM202300 36018G25KT 6SM -RA BR OVC012
FM210300 36015G20KT P6SM BKN025
FM210700 34014KT P6SM SKC
FM211500 01017KT P6SM SKC

Example: see airport list